Time;durP1;ratioP1;P1;durP2;ratioP2;P2;SDS_P1;SDS_P2;PMS_P1;PMS_P2;Temp;Humidity;BMP_temperature;BMP_pressure;BME280_temperature;BME280_humidity;BME280_pressure;Samples;Min_cycle;Max_cycle;Signal;HPM_P1;HPM_P2
2023/07/24 00:00:25;;;;;;;1.48;1.10;;;;;;;;;;5036947;28;20045;-77
2023/07/24 00:02:53;;;;;;;1.23;1.10;;;;;;;;;;5033561;28;20053;-76
2023/07/24 00:05:18;;;;;;;1.08;1.05;;;;;;;;;;5017086;28;20529;-76
2023/07/24 00:07:44;;;;;;;0.80;0.77;;;;;;;;;;5034055;28;20084;-76
2023/07/24 00:10:09;;;;;;;1.67;1.10;;;;;;;;;;5010457;28;20045;-75
2023/07/24 00:12:34;;;;;;;1.92;1.00;;;;;;;;;;5008097;28;20026;-76
2023/07/24 00:15:00;;;;;;;2.20;1.00;;;;;;;;;;5017270;28;20057;-77
2023/07/24 00:17:25;;;;;;;1.05;0.95;;;;;;;;;;5012626;28;20037;-77
2023/07/24 00:19:51;;;;;;;0.98;0.85;;;;;;;;;;5023791;28;20048;-77
2023/07/24 00:22:16;;;;;;;1.08;0.98;;;;;;;;;;5037506;28;20041;-78
2023/07/24 00:24:41;;;;;;;1.13;0.90;;;;;;;;;;5037576;28;20402;-77
2023/07/24 00:27:07;;;;;;;2.63;1.00;;;;;;;;;;5027410;28;20095;-77
2023/07/24 00:29:32;;;;;;;1.60;1.00;;;;;;;;;;5034196;28;20034;-77
2023/07/24 00:31:58;;;;;;;1.00;0.90;;;;;;;;;;5014473;28;20049;-78
2023/07/24 00:34:23;;;;;;;0.80;0.80;;;;;;;;;;5046306;28;20039;-78
2023/07/24 00:36:49;;;;;;;1.13;0.77;;;;;;;;;;5046657;28;20087;-78
2023/07/24 00:39:14;;;;;;;0.85;0.80;;;;;;;;;;5021921;28;20072;-78
2023/07/24 00:41:40;;;;;;;1.52;0.90;;;;;;;;;;5030505;28;20032;-76
2023/07/24 00:44:05;;;;;;;1.00;0.90;;;;;;;;;;5040774;28;20670;-76
2023/07/24 00:46:32;;;;;;;0.80;0.80;;;;;;;;;;5018984;28;20072;-77
2023/07/24 00:48:59;;;;;;;1.35;1.08;;;;;;;;;;5029550;28;20032;-76
2023/07/24 00:51:26;;;;;;;1.00;0.85;;;;;;;;;;5030466;28;20041;-76
2023/07/24 00:53:52;;;;;;;1.10;1.00;;;;;;;;;;5021968;28;20041;-76
2023/07/24 00:56:17;;;;;;;2.50;1.00;;;;;;;;;;5014749;28;20049;-77
2023/07/24 00:58:42;;;;;;;1.25;1.10;;;;;;;;;;5035874;28;20047;-77
2023/07/24 01:01:10;;;;;;;2.03;1.20;;;;;;;;;;5040208;28;20549;-78
2023/07/24 01:03:36;;;;;;;1.45;0.90;;;;;;;;;;5040100;28;20037;-77
2023/07/24 01:06:02;;;;;;;1.13;1.02;;;;;;;;;;5036839;28;20090;-77
2023/07/24 01:08:28;;;;;;;2.30;0.93;;;;;;;;;;5025323;28;21810;-77
2023/07/24 01:10:56;;;;;;;1.50;1.10;;;;;;;;;;5035531;28;20213;-77
2023/07/24 01:13:25;;;;;;;3.03;0.88;;;;;;;;;;5024124;28;20674;-77
2023/07/24 01:16:03;;;;;;;1.90;1.05;;;;;;;;;;5026637;28;20076;-77
2023/07/24 01:18:30;;;;;;;0.70;0.70;;;;;;;;;;5025562;28;20098;-78
2023/07/24 01:20:57;;;;;;;0.98;0.80;;;;;;;;;;5033307;28;20032;-78
2023/07/24 01:23:44;;;;;;;1.10;0.80;;;;;;;;;;5037576;28;20033;-76
2023/07/24 01:26:09;;;;;;;0.73;0.70;;;;;;;;;;5032966;28;20494;-77
2023/07/24 01:28:35;;;;;;;1.38;0.82;;;;;;;;;;5038592;28;20040;-77
2023/07/24 01:31:00;;;;;;;1.95;0.90;;;;;;;;;;5023535;28;20045;-76
2023/07/24 01:33:26;;;;;;;1.63;1.17;;;;;;;;;;5007765;28;20041;-76
2023/07/24 01:35:58;;;;;;;1.40;1.02;;;;;;;;;;5036044;28;20067;-77
2023/07/24 01:38:25;;;;;;;1.45;0.90;;;;;;;;;;5026834;28;20098;-77
2023/07/24 01:40:53;;;;;;;1.83;1.13;;;;;;;;;;5035880;28;20037;-77
2023/07/24 01:43:19;;;;;;;1.17;0.80;;;;;;;;;;5036005;28;20038;-77
2023/07/24 01:45:44;;;;;;;1.17;1.02;;;;;;;;;;5031585;28;20048;-76
2023/07/24 01:48:10;;;;;;;1.25;1.10;;;;;;;;;;5011224;28;20143;-76
2023/07/24 01:50:35;;;;;;;1.35;1.05;;;;;;;;;;5033339;28;20559;-75
2023/07/24 01:53:01;;;;;;;1.50;1.23;;;;;;;;;;5030050;28;20033;-76
2023/07/24 01:55:26;;;;;;;1.38;1.20;;;;;;;;;;5033427;28;20037;-76
2023/07/24 01:57:51;;;;;;;2.40;1.08;;;;;;;;;;5045772;28;20067;-76
2023/07/24 02:00:17;;;;;;;1.35;0.90;;;;;;;;;;5031983;28;20060;-76
2023/07/24 02:02:42;;;;;;;1.23;0.93;;;;;;;;;;5042681;28;20071;-76
2023/07/24 02:05:08;;;;;;;1.90;1.25;;;;;;;;;;5015999;28;20065;-76
2023/07/24 02:07:34;;;;;;;1.00;0.90;;;;;;;;;;5032377;28;20068;-75
2023/07/24 02:09:59;;;;;;;1.42;1.20;;;;;;;;;;5023704;28;20579;-76
2023/07/24 02:12:25;;;;;;;2.13;0.90;;;;;;;;;;5015667;28;20120;-76
2023/07/24 02:14:51;;;;;;;2.08;1.33;;;;;;;;;;5031510;28;20033;-76
2023/07/24 02:17:18;;;;;;;0.82;0.80;;;;;;;;;;5037083;28;20044;-77
2023/07/24 02:19:44;;;;;;;1.00;0.90;;;;;;;;;;5025566;28;20034;-76
2023/07/24 02:22:09;;;;;;;0.70;0.70;;;;;;;;;;5032629;28;20090;-76
2023/07/24 02:24:35;;;;;;;1.30;1.00;;;;;;;;;;5039884;28;20510;-76
2023/07/24 02:27:01;;;;;;;1.35;1.00;;;;;;;;;;5011366;28;20033;-76
2023/07/24 02:29:27;;;;;;;1.15;0.90;;;;;;;;;;5024442;28;20033;-76
2023/07/24 02:31:54;;;;;;;1.05;0.95;;;;;;;;;;5041323;28;20048;-76
2023/07/24 02:34:24;;;;;;;0.70;0.60;;;;;;;;;;5020024;28;20056;-75
2023/07/24 02:36:49;;;;;;;2.20;1.10;;;;;;;;;;5030124;28;20025;-75
2023/07/24 02:39:15;;;;;;;1.38;0.90;;;;;;;;;;5020124;28;20049;-75
2023/07/24 02:41:40;;;;;;;1.25;1.02;;;;;;;;;;5006215;28;20037;-76
2023/07/24 02:44:06;;;;;;;1.23;0.93;;;;;;;;;;5043328;28;20037;-76
2023/07/24 02:46:31;;;;;;;1.05;0.90;;;;;;;;;;5045498;28;20515;-77
2023/07/24 02:48:56;;;;;;;1.60;0.77;;;;;;;;;;5044164;28;20037;-77
2023/07/24 02:51:22;;;;;;;1.98;1.08;;;;;;;;;;5028337;28;20040;-76
2023/07/24 02:53:47;;;;;;;1.08;0.98;;;;;;;;;;5036527;28;20122;-76
2023/07/24 02:56:12;;;;;;;1.00;0.90;;;;;;;;;;5036720;28;20043;-76
2023/07/24 02:58:38;;;;;;;1.20;1.10;;;;;;;;;;5046956;28;20063;-77
2023/07/24 03:01:07;;;;;;;1.58;1.00;;;;;;;;;;5042282;28;20051;-77
2023/07/24 03:03:33;;;;;;;2.08;1.20;;;;;;;;;;5029193;28;20505;-77
2023/07/24 03:05:59;;;;;;;1.55;0.93;;;;;;;;;;5027349;28;20041;-77
2023/07/24 03:08:24;;;;;;;1.08;0.90;;;;;;;;;;5016810;28;20087;-77
2023/07/24 03:10:50;;;;;;;2.35;1.13;;;;;;;;;;5010989;28;20064;-77
2023/07/24 03:13:15;;;;;;;1.55;1.00;;;;;;;;;;5041618;28;20037;-77
2023/07/24 03:15:41;;;;;;;0.88;0.88;;;;;;;;;;5014557;28;20084;-76
2023/07/24 03:18:06;;;;;;;1.20;1.10;;;;;;;;;;5034353;28;20041;-77
2023/07/24 03:20:32;;;;;;;3.10;1.17;;;;;;;;;;5043356;28;20032;-77
2023/07/24 03:22:57;;;;;;;2.58;1.10;;;;;;;;;;5046461;28;20086;-78
2023/07/24 03:25:23;;;;;;;1.48;0.80;;;;;;;;;;4999675;28;20040;-78
2023/07/24 03:27:48;;;;;;;4.85;0.90;;;;;;;;;;5033363;28;20033;-78
2023/07/24 03:30:14;;;;;;;0.80;0.80;;;;;;;;;;5039436;28;20033;-78
2023/07/24 03:32:40;;;;;;;1.27;0.90;;;;;;;;;;5037714;28;20032;-78
2023/07/24 03:35:06;;;;;;;1.23;1.00;;;;;;;;;;5024819;28;20916;-78
2023/07/24 03:37:32;;;;;;;0.80;0.77;;;;;;;;;;5020531;28;20045;-77
2023/07/24 03:39:57;;;;;;;0.95;0.77;;;;;;;;;;5026113;28;20037;-78
2023/07/24 03:42:30;;;;;;;2.25;1.00;;;;;;;;;;5033630;28;20052;-79
2023/07/24 03:44:57;;;;;;;3.42;1.60;;;;;;;;;;5026539;28;20029;-76
2023/07/24 03:47:23;;;;;;;1.85;1.23;;;;;;;;;;5022777;28;20034;-77
2023/07/24 03:49:49;;;;;;;1.58;0.95;;;;;;;;;;5022691;28;20567;-78
2023/07/24 03:52:14;;;;;;;2.13;1.00;;;;;;;;;;5030427;28;20052;-77
2023/07/24 03:54:39;;;;;;;1.33;1.23;;;;;;;;;;5008259;28;20576;-77
2023/07/24 03:57:05;;;;;;;3.45;1.30;;;;;;;;;;5035510;28;20048;-76
2023/07/24 03:59:30;;;;;;;1.92;0.90;;;;;;;;;;5028258;28;20518;-76
2023/07/24 04:01:56;;;;;;;2.15;1.00;;;;;;;;;;5010794;28;20128;-77
2023/07/24 04:04:22;;;;;;;1.48;0.85;;;;;;;;;;5040517;28;20079;-77
2023/07/24 04:06:47;;;;;;;1.75;1.02;;;;;;;;;;5035073;28;20032;-76
2023/07/24 04:09:16;;;;;;;1.40;1.15;;;;;;;;;;5043226;28;20033;-76
2023/07/24 04:11:43;;;;;;;1.83;1.48;;;;;;;;;;5044750;28;20537;-76
2023/07/24 04:14:08;;;;;;;2.10;1.10;;;;;;;;;;5041447;28;20455;-76
2023/07/24 04:16:34;;;;;;;1.38;1.05;;;;;;;;;;5044947;28;20127;-76
2023/07/24 04:18:59;;;;;;;1.27;1.17;;;;;;;;;;5018976;28;20551;-76
2023/07/24 04:21:24;;;;;;;2.10;1.23;;;;;;;;;;5020585;28;20037;-76
2023/07/24 04:23:50;;;;;;;1.75;1.00;;;;;;;;;;5003246;28;20429;-76
2023/07/24 04:26:15;;;;;;;1.20;0.95;;;;;;;;;;5013792;28;20263;-77
2023/07/24 04:28:40;;;;;;;1.65;1.15;;;;;;;;;;5030000;28;20128;-76
2023/07/24 04:31:06;;;;;;;1.55;1.15;;;;;;;;;;5027899;28;20835;-76
2023/07/24 04:33:31;;;;;;;1.45;0.95;;;;;;;;;;5041918;28;20056;-77
2023/07/24 04:35:57;;;;;;;0.82;0.73;;;;;;;;;;5024787;28;20034;-77
2023/07/24 04:38:22;;;;;;;1.30;0.93;;;;;;;;;;5037236;28;20032;-77
2023/07/24 04:40:47;;;;;;;1.75;1.30;;;;;;;;;;5038176;28;20048;-77
2023/07/24 04:43:13;;;;;;;1.25;1.10;;;;;;;;;;5029805;28;20041;-76
2023/07/24 04:45:38;;;;;;;0.80;0.80;;;;;;;;;;5031488;28;20585;-77
2023/07/24 04:48:04;;;;;;;1.10;1.00;;;;;;;;;;5022462;28;20033;-77
2023/07/24 04:50:30;;;;;;;1.00;0.90;;;;;;;;;;5027132;28;20041;-78
2023/07/24 04:52:55;;;;;;;2.05;1.10;;;;;;;;;;5023143;28;20043;-77
2023/07/24 04:55:21;;;;;;;1.27;1.10;;;;;;;;;;5035876;28;20807;-77
2023/07/24 04:57:47;;;;;;;2.13;1.33;;;;;;;;;;5032293;28;20128;-78
2023/07/24 05:00:13;;;;;;;1.63;1.30;;;;;;;;;;5039021;28;20110;-77
2023/07/24 05:02:39;;;;;;;1.88;1.27;;;;;;;;;;5013234;28;20045;-78
2023/07/24 05:05:05;;;;;;;1.55;1.30;;;;;;;;;;5019153;28;20037;-77
2023/07/24 05:07:30;;;;;;;2.03;1.30;;;;;;;;;;5023988;28;20751;-76
2023/07/24 05:09:56;;;;;;;2.05;1.25;;;;;;;;;;5024767;28;20048;-76
2023/07/24 05:12:21;;;;;;;1.65;1.08;;;;;;;;;;5023596;28;20056;-76
2023/07/24 05:14:46;;;;;;;2.03;1.45;;;;;;;;;;5034729;28;20048;-76
2023/07/24 05:17:12;;;;;;;2.30;1.50;;;;;;;;;;5018242;28;20592;-76
2023/07/24 05:19:37;;;;;;;1.83;1.40;;;;;;;;;;5044071;28;20489;-76
2023/07/24 05:22:03;;;;;;;1.95;1.40;;;;;;;;;;5042273;28;20043;-77
2023/07/24 05:24:28;;;;;;;1.95;1.40;;;;;;;;;;5040241;28;20037;-75
2023/07/24 05:26:54;;;;;;;2.15;1.20;;;;;;;;;;5029859;28;20029;-76
2023/07/24 05:29:19;;;;;;;1.70;1.30;;;;;;;;;;5033957;28;20049;-76
2023/07/24 05:31:44;;;;;;;2.35;1.50;;;;;;;;;;5021393;28;20094;-78
2023/07/24 05:34:10;;;;;;;1.80;1.55;;;;;;;;;;5024637;28;20406;-77
2023/07/24 05:36:35;;;;;;;2.13;1.60;;;;;;;;;;5028009;28;20567;-77
2023/07/24 05:39:00;;;;;;;1.40;1.10;;;;;;;;;;5046440;28;20064;-78
2023/07/24 05:41:26;;;;;;;3.10;1.77;;;;;;;;;;5037111;28;20037;-77
2023/07/24 05:43:51;;;;;;;1.92;1.50;;;;;;;;;;5016526;28;20033;-78
2023/07/24 05:46:17;;;;;;;3.90;2.58;;;;;;;;;;5019570;28;20588;-78
2023/07/24 05:48:42;;;;;;;2.20;1.40;;;;;;;;;;5027003;28;20037;-78
2023/07/24 05:51:08;;;;;;;2.35;1.30;;;;;;;;;;5036813;28;20037;-78
2023/07/24 05:53:33;;;;;;;1.83;1.30;;;;;;;;;;5028381;28;20033;-76
2023/07/24 05:56:00;;;;;;;2.92;1.60;;;;;;;;;;5013705;28;20374;-77
2023/07/24 05:58:26;;;;;;;2.03;1.10;;;;;;;;;;5030482;28;20056;-76
2023/07/24 06:00:51;;;;;;;3.47;1.30;;;;;;;;;;5022770;28;20042;-76
2023/07/24 06:03:17;;;;;;;1.95;1.50;;;;;;;;;;5034367;28;20081;-76
2023/07/24 06:05:42;;;;;;;2.03;1.40;;;;;;;;;;5045923;28;20028;-76
2023/07/24 06:08:10;;;;;;;2.78;1.65;;;;;;;;;;5044073;28;20079;-76
2023/07/24 06:10:36;;;;;;;1.20;1.10;;;;;;;;;;5044258;28;20040;-76
2023/07/24 06:13:01;;;;;;;2.83;1.80;;;;;;;;;;5011318;28;20095;-77
2023/07/24 06:15:27;;;;;;;1.15;0.90;;;;;;;;;;5037242;28;20044;-76
2023/07/24 06:17:52;;;;;;;1.50;1.30;;;;;;;;;;5042506;28;20036;-76
2023/07/24 06:20:17;;;;;;;2.17;1.50;;;;;;;;;;5042088;28;20511;-76
2023/07/24 06:22:43;;;;;;;1.67;1.50;;;;;;;;;;5046554;28;20094;-75
2023/07/24 06:25:08;;;;;;;2.22;1.58;;;;;;;;;;5046781;28;20033;-76
2023/07/24 06:27:34;;;;;;;1.80;1.17;;;;;;;;;;5036232;28;20056;-76
2023/07/24 06:29:59;;;;;;;1.55;1.05;;;;;;;;;;5018863;28;20424;-76
2023/07/24 06:32:24;;;;;;;5.88;1.95;;;;;;;;;;5022908;28;20134;-76
2023/07/24 06:34:50;;;;;;;1.48;1.27;;;;;;;;;;5034448;28;20033;-76
2023/07/24 06:37:15;;;;;;;1.15;1.08;;;;;;;;;;5037145;28;20134;-76
2023/07/24 06:39:41;;;;;;;2.53;1.52;;;;;;;;;;5016169;28;20091;-76
2023/07/24 06:42:07;;;;;;;1.55;1.20;;;;;;;;;;5023422;28;20623;-77
2023/07/24 06:44:33;;;;;;;2.00;1.50;;;;;;;;;;5017432;28;20143;-77
2023/07/24 06:46:58;;;;;;;2.65;1.65;;;;;;;;;;5032547;28;20052;-80
2023/07/24 06:49:23;;;;;;;2.00;1.42;;;;;;;;;;5017432;28;20102;-79
2023/07/24 06:51:49;;;;;;;1.58;1.10;;;;;;;;;;5045731;28;20402;-80
2023/07/24 06:54:14;;;;;;;2.95;1.73;;;;;;;;;;5026992;28;20128;-79
2023/07/24 06:56:40;;;;;;;3.80;1.85;;;;;;;;;;5005234;28;20040;-81
2023/07/24 06:59:05;;;;;;;3.38;1.80;;;;;;;;;;5014168;28;21271;-79
2023/07/24 07:01:30;;;;;;;1.70;1.25;;;;;;;;;;5030086;28;20041;-79
2023/07/24 07:03:56;;;;;;;3.47;1.98;;;;;;;;;;5045891;28;20044;-80
2023/07/24 07:06:21;;;;;;;2.65;2.00;;;;;;;;;;5050265;28;20064;-79
2023/07/24 07:08:46;;;;;;;4.22;2.60;;;;;;;;;;5029827;28;20119;-79
2023/07/24 07:11:12;;;;;;;2.75;1.60;;;;;;;;;;5015687;28;20094;-79
2023/07/24 07:13:37;;;;;;;4.22;1.80;;;;;;;;;;5032577;28;20217;-79
2023/07/24 07:16:03;;;;;;;1.63;1.25;;;;;;;;;;5040604;28;20503;-80
2023/07/24 07:18:28;;;;;;;2.83;1.70;;;;;;;;;;5049479;28;20044;-79
2023/07/24 07:20:54;;;;;;;2.92;1.75;;;;;;;;;;5037297;28;20787;-80
2023/07/24 07:23:20;;;;;;;1.92;1.33;;;;;;;;;;5038236;28;20074;-79
2023/07/24 07:25:46;;;;;;;1.80;1.52;;;;;;;;;;5034078;28;20028;-81
2023/07/24 07:28:15;;;;;;;2.63;1.83;;;;;;;;;;5022425;28;20043;-81
2023/07/24 07:30:41;;;;;;;2.38;1.98;;;;;;;;;;5046163;28;20044;-81
2023/07/24 07:33:07;;;;;;;5.45;2.13;;;;;;;;;;5031395;28;20152;-79
2023/07/24 07:35:33;;;;;;;3.75;2.38;;;;;;;;;;5021354;28;20861;-80
2023/07/24 07:37:59;;;;;;;2.25;1.65;;;;;;;;;;5014064;28;20126;-80
2023/07/24 07:40:26;;;;;;;3.60;2.00;;;;;;;;;;5006249;28;20949;-80
2023/07/24 07:42:52;;;;;;;2.60;1.92;;;;;;;;;;5044102;28;20060;-79
2023/07/24 07:45:17;;;;;;;2.40;1.80;;;;;;;;;;5035709;28;20456;-79
2023/07/24 07:47:43;;;;;;;3.67;2.00;;;;;;;;;;5045640;28;20047;-79
2023/07/24 07:50:08;;;;;;;1.90;1.60;;;;;;;;;;5042391;28;20052;-81
2023/07/24 07:52:34;;;;;;;2.80;1.85;;;;;;;;;;5014448;28;20839;-81
2023/07/24 07:54:59;;;;;;;1.20;1.10;;;;;;;;;;5045808;28;20047;-80
2023/07/24 07:57:25;;;;;;;3.35;1.65;;;;;;;;;;5046984;28;20041;-80
2023/07/24 07:59:50;;;;;;;2.55;1.85;;;;;;;;;;5047506;28;20041;-80
2023/07/24 08:02:16;;;;;;;1.80;1.50;;;;;;;;;;5032248;28;20037;-80
2023/07/24 08:04:41;;;;;;;3.40;1.88;;;;;;;;;;5012327;28;20041;-80
2023/07/24 08:07:06;;;;;;;4.57;2.33;;;;;;;;;;5022070;28;20110;-80
2023/07/24 08:09:33;;;;;;;3.28;1.92;;;;;;;;;;5036687;28;20033;-80
2023/07/24 08:11:59;;;;;;;4.25;2.50;;;;;;;;;;5030647;28;20125;-80
2023/07/24 08:14:24;;;;;;;3.38;2.13;;;;;;;;;;5031929;28;20082;-79
2023/07/24 08:16:50;;;;;;;2.35;1.48;;;;;;;;;;5034152;28;20089;-80
2023/07/24 08:19:16;;;;;;;3.30;2.65;;;;;;;;;;5042528;28;20037;-80
2023/07/24 08:21:41;;;;;;;3.85;2.40;;;;;;;;;;5028240;28;20033;-80
2023/07/24 08:24:07;;;;;;;3.55;1.88;;;;;;;;;;5036334;28;20037;-79
2023/07/24 08:26:32;;;;;;;2.05;1.65;;;;;;;;;;5039399;28;20623;-79
2023/07/24 08:28:58;;;;;;;2.80;1.98;;;;;;;;;;5045841;28;20536;-80
2023/07/24 08:31:23;;;;;;;5.45;3.55;;;;;;;;;;5031456;28;20037;-81
2023/07/24 08:33:49;;;;;;;2.67;2.08;;;;;;;;;;5021524;28;20132;-81
2023/07/24 08:36:14;;;;;;;5.78;2.80;;;;;;;;;;5032201;28;20030;-80
2023/07/24 08:38:40;;;;;;;3.58;2.67;;;;;;;;;;5048365;28;20990;-82
2023/07/24 08:41:11;;;;;;;5.15;2.65;;;;;;;;;;5057047;28;20045;-81
2023/07/24 08:43:38;;;;;;;3.53;2.72;;;;;;;;;;5031156;28;20038;-80
2023/07/24 08:46:04;;;;;;;4.63;2.67;;;;;;;;;;5046393;28;20031;-79
2023/07/24 08:48:35;;;;;;;3.20;2.10;;;;;;;;;;5044670;28;20033;-80
2023/07/24 08:51:02;;;;;;;5.70;2.55;;;;;;;;;;5054239;28;20033;-80
2023/07/24 08:53:29;;;;;;;5.25;2.65;;;;;;;;;;5032548;28;20251;-80
2023/07/24 08:55:55;;;;;;;5.03;2.80;;;;;;;;;;5039172;28;20049;-80
2023/07/24 08:58:21;;;;;;;5.20;2.70;;;;;;;;;;5047200;28;20117;-79
2023/07/24 09:00:46;;;;;;;2.53;2.15;;;;;;;;;;5057778;28;20589;-79
2023/07/24 09:03:12;;;;;;;5.53;2.83;;;;;;;;;;5015102;28;20102;-80
2023/07/24 09:05:37;;;;;;;4.35;2.50;;;;;;;;;;5034172;28;20067;-80
2023/07/24 09:08:03;;;;;;;3.40;2.58;;;;;;;;;;5052822;28;20041;-80
2023/07/24 09:10:28;;;;;;;3.83;2.75;;;;;;;;;;5038603;28;20112;-80
2023/07/24 09:12:55;;;;;;;3.83;2.53;;;;;;;;;;5047700;28;20530;-80
2023/07/24 09:15:20;;;;;;;4.82;2.53;;;;;;;;;;5033831;28;20041;-80
2023/07/24 09:17:50;;;;;;;4.80;2.67;;;;;;;;;;5020309;28;20040;-80
2023/07/24 09:20:16;;;;;;;3.00;2.30;;;;;;;;;;5056317;28;20036;-80
2023/07/24 09:22:51;;;;;;;1.88;1.58;;;;;;;;;;5051761;28;20381;-80
2023/07/24 09:25:16;;;;;;;4.75;2.60;;;;;;;;;;5032032;28;20095;-79
2023/07/24 09:27:41;;;;;;;3.38;1.98;;;;;;;;;;5054885;28;20486;-80
2023/07/24 09:30:19;;;;;;;4.80;2.08;;;;;;;;;;5006277;28;20056;-80
2023/07/24 09:32:54;;;;;;;3.45;2.55;;;;;;;;;;5025345;28;20039;-80
2023/07/24 09:35:22;;;;;;;3.10;2.40;;;;;;;;;;5048144;28;20036;-80
2023/07/24 09:37:47;;;;;;;3.58;2.05;;;;;;;;;;5017799;28;20033;-80
2023/07/24 09:40:14;;;;;;;4.07;2.30;;;;;;;;;;5013094;28;20041;-79
2023/07/24 09:42:40;;;;;;;4.43;2.90;;;;;;;;;;5025589;28;20041;-78
2023/07/24 09:45:08;;;;;;;3.97;3.42;;;;;;;;;;5050482;28;20135;-79
2023/07/24 09:47:34;;;;;;;3.75;2.90;;;;;;;;;;5040223;28;20087;-79
2023/07/24 09:50:02;;;;;;;3.75;2.67;;;;;;;;;;5024731;28;20644;-78
2023/07/24 09:52:30;;;;;;;4.13;2.88;;;;;;;;;;5033143;28;20041;-80
2023/07/24 09:55:04;;;;;;;3.40;2.63;;;;;;;;;;5028736;28;20037;-78
2023/07/24 09:57:31;;;;;;;3.53;2.88;;;;;;;;;;5038150;28;20048;-79
2023/07/24 09:59:57;;;;;;;3.83;2.53;;;;;;;;;;5031872;28;20033;-80
2023/07/24 10:02:24;;;;;;;4.68;2.80;;;;;;;;;;5032593;28;20432;-79
2023/07/24 10:04:50;;;;;;;5.13;2.83;;;;;;;;;;5037476;28;20120;-79
2023/07/24 10:07:16;;;;;;;3.40;2.58;;;;;;;;;;5012059;28;20057;-79
2023/07/24 10:09:45;;;;;;;4.10;2.58;;;;;;;;;;5046675;28;20143;-79
2023/07/24 10:12:11;;;;;;;4.60;2.90;;;;;;;;;;5045786;28;20106;-78
2023/07/24 10:14:37;;;;;;;4.28;3.15;;;;;;;;;;5023631;28;20032;-79
2023/07/24 10:17:03;;;;;;;3.40;2.90;;;;;;;;;;5042888;28;20406;-78
2023/07/24 10:19:43;;;;;;;3.90;2.85;;;;;;;;;;5030554;28;20045;-79
2023/07/24 10:22:17;;;;;;;3.65;2.40;;;;;;;;;;5005808;28;20049;-79
2023/07/24 10:24:43;;;;;;;3.75;2.90;;;;;;;;;;5045058;28;20095;-79
2023/07/24 10:27:08;;;;;;;2.97;2.33;;;;;;;;;;5029942;28;20457;-78
2023/07/24 10:29:35;;;;;;;6.07;3.17;;;;;;;;;;5040108;28;20032;-80
2023/07/24 10:32:01;;;;;;;4.00;2.85;;;;;;;;;;5050794;28;20040;-80
2023/07/24 10:34:36;;;;;;;4.25;3.13;;;;;;;;;;5028772;28;20041;-80
2023/07/24 10:37:03;;;;;;;3.83;2.80;;;;;;;;;;5020161;28;20395;-80
2023/07/24 10:39:38;;;;;;;3.80;2.70;;;;;;;;;;5034395;28;20041;-79
2023/07/24 10:42:10;;;;;;;4.70;2.80;;;;;;;;;;5022023;28;20037;-79
2023/07/24 10:44:37;;;;;;;4.47;3.17;;;;;;;;;;5037328;28;20047;-78
2023/07/24 10:47:03;;;;;;;3.33;2.47;;;;;;;;;;5014468;28;20040;-80
2023/07/24 10:49:31;;;;;;;5.13;3.33;;;;;;;;;;5045415;28;20041;-78
2023/07/24 10:51:58;;;;;;;3.58;2.83;;;;;;;;;;5043676;28;20068;-79
2023/07/24 10:54:23;;;;;;;3.13;2.40;;;;;;;;;;5043550;28;20083;-79
2023/07/24 10:56:48;;;;;;;3.80;2.25;;;;;;;;;;5024907;28;20037;-79
2023/07/24 10:59:14;;;;;;;4.63;3.13;;;;;;;;;;5031017;28;20037;-79
2023/07/24 11:01:40;;;;;;;4.07;3.10;;;;;;;;;;5035610;28;20554;-79
2023/07/24 11:04:06;;;;;;;4.03;2.70;;;;;;;;;;5023489;28;20037;-79
2023/07/24 11:06:32;;;;;;;2.97;2.50;;;;;;;;;;5036950;28;20778;-79
2023/07/24 11:08:59;;;;;;;4.75;3.03;;;;;;;;;;5021132;28;20045;-79
2023/07/24 11:11:34;;;;;;;4.28;2.85;;;;;;;;;;5019783;28;20042;-80
2023/07/24 11:14:01;;;;;;;3.45;2.70;;;;;;;;;;5001876;28;20113;-80
2023/07/24 11:16:27;;;;;;;4.13;3.10;;;;;;;;;;5038345;28;20862;-79
2023/07/24 11:18:52;;;;;;;4.03;3.03;;;;;;;;;;5008606;28;20155;-80
2023/07/24 11:21:18;;;;;;;4.03;2.58;;;;;;;;;;5020656;28;20460;-80
2023/07/24 11:23:55;;;;;;;3.30;2.70;;;;;;;;;;5034825;28;20040;-79
2023/07/24 11:26:24;;;;;;;4.18;2.90;;;;;;;;;;5035578;28;20040;-79
2023/07/24 11:28:50;;;;;;;2.88;2.42;;;;;;;;;;5028929;28;20040;-79
2023/07/24 11:31:19;;;;;;;3.20;2.45;;;;;;;;;;5041962;28;20044;-78
2023/07/24 11:33:45;;;;;;;3.92;2.78;;;;;;;;;;5044687;28;20032;-80
2023/07/24 11:36:11;;;;;;;3.78;2.80;;;;;;;;;;5024176;28;20040;-79
2023/07/24 11:38:38;;;;;;;5.70;3.20;;;;;;;;;;5011401;28;20040;-79
2023/07/24 11:41:04;;;;;;;3.42;2.78;;;;;;;;;;5025051;28;20037;-79
2023/07/24 11:43:29;;;;;;;3.63;2.95;;;;;;;;;;5042238;28;20098;-79
2023/07/24 11:45:55;;;;;;;4.38;2.58;;;;;;;;;;5031197;28;20025;-80
2023/07/24 11:48:23;;;;;;;3.60;2.75;;;;;;;;;;5035732;28;20040;-80
2023/07/24 11:50:54;;;;;;;3.92;2.65;;;;;;;;;;5038766;28;20543;-79
2023/07/24 11:53:24;;;;;;;3.15;2.70;;;;;;;;;;5035644;28;20579;-79
2023/07/24 11:55:51;;;;;;;4.03;3.10;;;;;;;;;;5044236;28;20067;-79
2023/07/24 11:58:17;;;;;;;4.20;2.85;;;;;;;;;;5035368;28;20033;-79
2023/07/24 12:00:42;;;;;;;2.88;2.58;;;;;;;;;;5023148;28;20040;-80
2023/07/24 12:03:08;;;;;;;5.60;3.03;;;;;;;;;;5033344;28;20576;-79
2023/07/24 12:05:40;;;;;;;5.22;2.97;;;;;;;;;;5027253;28;20029;-80
2023/07/24 12:08:06;;;;;;;3.40;2.33;;;;;;;;;;5007337;28;20119;-80
2023/07/24 12:10:31;;;;;;;2.55;2.17;;;;;;;;;;5043668;28;20698;-80
2023/07/24 12:12:59;;;;;;;3.85;2.90;;;;;;;;;;5039780;28;20041;-79
2023/07/24 12:15:26;;;;;;;3.63;2.83;;;;;;;;;;5047854;28;20052;-80
2023/07/24 12:17:52;;;;;;;5.13;2.67;;;;;;;;;;5050046;28;20036;-79
2023/07/24 12:20:17;;;;;;;3.13;2.72;;;;;;;;;;5039170;28;20562;-79
2023/07/24 12:22:43;;;;;;;3.60;2.72;;;;;;;;;;5035867;28;20405;-78
2023/07/24 12:25:08;;;;;;;3.78;2.90;;;;;;;;;;5049356;28;20033;-78
2023/07/24 12:27:33;;;;;;;3.30;2.47;;;;;;;;;;5051590;28;20055;-78
2023/07/24 12:29:59;;;;;;;3.85;2.85;;;;;;;;;;5051992;28;20044;-79
2023/07/24 12:32:25;;;;;;;3.58;2.72;;;;;;;;;;5010805;28;20472;-78
2023/07/24 12:34:51;;;;;;;4.88;3.33;;;;;;;;;;5037683;28;20029;-79
2023/07/24 12:37:17;;;;;;;3.25;2.55;;;;;;;;;;5047445;28;20063;-78
2023/07/24 12:39:45;;;;;;;4.25;3.05;;;;;;;;;;5029225;28;20068;-78
2023/07/24 12:42:10;;;;;;;4.25;2.97;;;;;;;;;;5041300;28;20041;-77
2023/07/24 12:44:36;;;;;;;2.78;2.42;;;;;;;;;;5043496;28;20035;-78
2023/07/24 12:47:01;;;;;;;3.92;3.25;;;;;;;;;;5052097;28;20032;-78
2023/07/24 12:49:27;;;;;;;4.78;3.53;;;;;;;;;;5040991;28;20055;-78
2023/07/24 12:51:52;;;;;;;4.88;3.35;;;;;;;;;;5040302;28;20067;-78
2023/07/24 12:54:19;;;;;;;4.57;3.08;;;;;;;;;;5038262;28;20620;-80
2023/07/24 12:56:45;;;;;;;3.97;3.10;;;;;;;;;;5032486;28;20067;-78
2023/07/24 12:59:11;;;;;;;4.35;3.47;;;;;;;;;;5038374;28;20040;-79
2023/07/24 13:01:36;;;;;;;2.78;2.47;;;;;;;;;;5040109;28;20033;-79
2023/07/24 13:04:02;;;;;;;4.85;3.55;;;;;;;;;;5009032;28;20114;-78
2023/07/24 13:06:27;;;;;;;6.00;3.85;;;;;;;;;;5038226;28;20048;-78
2023/07/24 13:08:52;;;;;;;3.92;3.20;;;;;;;;;;5040085;28;20036;-79
2023/07/24 13:11:18;;;;;;;6.40;3.67;;;;;;;;;;5039142;28;20068;-77
2023/07/24 13:13:43;;;;;;;4.28;3.25;;;;;;;;;;5042305;28;20032;-77
2023/07/24 13:16:09;;;;;;;5.15;3.50;;;;;;;;;;4989473;28;20041;-77
2023/07/24 13:18:34;;;;;;;5.35;3.63;;;;;;;;;;5034200;28;20037;-80
2023/07/24 13:20:59;;;;;;;5.68;3.15;;;;;;;;;;5037172;28;20075;-78
2023/07/24 13:23:25;;;;;;;5.43;4.10;;;;;;;;;;5041208;28;20099;-79
2023/07/24 13:25:53;;;;;;;7.25;4.28;;;;;;;;;;5038877;28;20046;-78
2023/07/24 13:28:18;;;;;;;4.03;3.30;;;;;;;;;;5021948;28;20040;-78
2023/07/24 13:30:44;;;;;;;5.53;4.07;;;;;;;;;;5026356;28;20033;-78
2023/07/24 13:33:09;;;;;;;5.03;3.47;;;;;;;;;;5032670;28;20189;-78
2023/07/24 13:35:35;;;;;;;5.95;3.72;;;;;;;;;;5036380;28;20045;-78
2023/07/24 13:38:00;;;;;;;5.75;4.28;;;;;;;;;;5041083;28;20240;-78
2023/07/24 13:40:26;;;;;;;5.65;4.22;;;;;;;;;;5035735;28;20029;-79
2023/07/24 13:42:51;;;;;;;6.45;4.18;;;;;;;;;;5044856;28;20077;-78
2023/07/24 13:45:17;;;;;;;6.40;4.95;;;;;;;;;;5035179;28;20399;-78
2023/07/24 13:47:42;;;;;;;5.22;3.80;;;;;;;;;;5036314;28;20099;-79
2023/07/24 13:50:08;;;;;;;5.47;4.07;;;;;;;;;;5039601;28;20033;-78
2023/07/24 13:52:33;;;;;;;4.43;3.50;;;;;;;;;;5037093;28;20040;-78
2023/07/24 13:55:00;;;;;;;7.25;4.50;;;;;;;;;;5030488;28;20049;-78
2023/07/24 13:57:26;;;;;;;5.88;4.22;;;;;;;;;;5039336;28;20371;-78
2023/07/24 13:59:51;;;;;;;6.03;4.28;;;;;;;;;;5034313;28;20570;-78
2023/07/24 14:02:16;;;;;;;4.97;3.83;;;;;;;;;;5040630;28;20513;-79
2023/07/24 14:04:42;;;;;;;6.45;4.50;;;;;;;;;;5033433;28;20045;-77
2023/07/24 14:07:07;;;;;;;5.97;4.20;;;;;;;;;;5031448;28;20421;-78
2023/07/24 14:09:34;;;;;;;4.78;4.03;;;;;;;;;;5038883;28;20182;-78
2023/07/24 14:12:00;;;;;;;4.72;3.92;;;;;;;;;;5041898;28;20580;-78
2023/07/24 14:14:26;;;;;;;6.25;4.68;;;;;;;;;;5013674;28;20064;-79
2023/07/24 14:16:51;;;;;;;5.85;4.28;;;;;;;;;;5036236;28;20418;-79
2023/07/24 14:19:17;;;;;;;5.13;3.75;;;;;;;;;;5036066;28;20490;-77
2023/07/24 14:21:43;;;;;;;5.22;3.72;;;;;;;;;;5047696;28;20045;-79
2023/07/24 14:24:09;;;;;;;5.15;3.90;;;;;;;;;;5028495;28;20029;-79
2023/07/24 14:26:36;;;;;;;5.57;4.10;;;;;;;;;;5020460;28;20030;-78
2023/07/24 14:29:01;;;;;;;4.90;3.63;;;;;;;;;;5023320;28;20047;-79
2023/07/24 14:31:26;;;;;;;5.18;3.83;;;;;;;;;;5046750;28;20036;-79
2023/07/24 14:33:52;;;;;;;4.50;3.70;;;;;;;;;;5038216;28;20680;-78
2023/07/24 14:36:17;;;;;;;5.03;3.47;;;;;;;;;;5035967;28;20033;-79